Terminal Aerodrome Forecast
Issued by NWS Binghamton, NY

Home | Current Version | Previous Version | Text Only | Print | Product List | Glossary On
Versions: 1 2 3 4 5 6 7 8 9 10 11 12 13 14 15 16 17 18 19 20 21 22 23 24
000
FTUS41 KBGM 262337
TAFBGM
TAF
KBGM 262337Z 2700/2724 35005KT P6SM SCT008 OVC015
      TEMPO 2700/2703 OVC008
     FM270300 VRB03KT 5SM BR OVC005
      TEMPO 2708/2712 1 1/2SM BR OVC002
     FM271200 VRB03KT P6SM OVC012
     FM271500 VRB03KT P6SM SCT025 BKN040=

USA.gov is the U.S. government's official web portal to all federal, state and local government web resources and services.